Time,TemperatureF,DewpointF,PressureIn,WindDirection,WindDirectionDegrees,WindSpeedMPH,WindSpeedGustMPH,Humidity,HourlyPrecipIn,Conditions,Clouds,dailyrainin,SoftwareType,DateUTC
2013-09-04 00:04:00,55.9,48.8,29.78,NNW,345,0.0,0.0,77,0.00,CLR,,0.00,WeatherDisplay:10.37,2013-09-04 06:04:00,
2013-09-04 00:09:00,55.7,48.9,29.78,NNW,345,1.2,0.0,78,0.00,CLR,,0.00,WeatherDisplay:10.37,2013-09-04 06:09:00,
2013-09-04 00:14:00,55.4,48.7,29.78,NNW,345,0.0,0.0,78,0.00,CLR,,0.00,WeatherDisplay:10.37,2013-09-04 06:14:00,
2013-09-04 00:19:00,55.1,47.7,29.77,NNW,345,1.2,0.0,76,0.00,CLR,,0.00,WeatherDisplay:10.37,2013-09-04 06:19:00,
2013-09-04 00:24:00,55.0,47.6,29.77,NNW,345,0.0,0.0,76,0.00,CLR,,0.00,WeatherDisplay:10.37,2013-09-04 06:24:00,
2013-09-04 00:29:00,54.8,47.4,29.77,NNW,345,1.2,1.2,76,0.00,CLR,,0.00,WeatherDisplay:10.37,2013-09-04 06:29:00,
2013-09-04 00:34:00,54.7,47.3,29.78,NNW,345,0.0,0.0,76,0.00,CLR,,0.00,WeatherDisplay:10.37,2013-09-04 06:34:00,
2013-09-04 00:39:00,54.7,48.0,29.78,NNW,345,2.3,2.3,78,0.00,CLR,,0.00,WeatherDisplay:10.37,2013-09-04 06:39:00,
2013-09-04 00:44:00,54.5,47.8,29.78,NNW,345,0.0,0.0,78,0.00,CLR,,0.00,WeatherDisplay:10.37,2013-09-04 06:44:00,
2013-09-04 00:49:00,54.4,47.7,29.77,NNW,345,0.0,0.0,78,0.00,CLR,,0.00,WeatherDisplay:10.37,2013-09-04 06:49:00,
2013-09-04 00:54:00,54.2,47.1,29.77,NNW,345,0.0,0.0,77,0.00,CLR,,0.00,WeatherDisplay:10.37,2013-09-04 06:54:00,
2013-09-04 00:59:00,54.2,47.5,29.77,NNW,345,0.0,0.0,78,0.00,CLR,,0.00,WeatherDisplay:10.37,2013-09-04 06:59:00,
2013-09-04 01:04:00,54.1,47.7,29.77,NNW,345,0.0,0.0,79,0.00,CLR,,0.00,WeatherDisplay:10.37,2013-09-04 07:04:00,
2013-09-04 01:09:00,53.8,47.4,29.77,NNW,345,3.5,3.5,79,0.00,CLR,,0.00,WeatherDisplay:10.37,2013-09-04 07:09:00,
2013-09-04 01:14:00,53.6,47.6,29.77,NNW,345,3.5,3.5,80,0.00,CLR,,0.00,WeatherDisplay:10.37,2013-09-04 07:14:00,
2013-09-04 01:20:00,53.5,47.5,29.80,NNW,345,2.3,2.3,80,0.00,CLR,,0.00,WeatherDisplay:10.37,2013-09-04 07:20:00,
2013-09-04 01:25:00,53.3,47.3,29.80,NNW,345,1.2,1.2,80,0.00,CLR,,0.00,WeatherDisplay:10.37,2013-09-04 07:25:00,
2013-09-04 01:30:00,53.3,47.3,29.80,NNW,345,2.3,2.3,80,0.00,CLR,,0.00,WeatherDisplay:10.37,2013-09-04 07:30:00,
2013-09-04 01:35:00,53.3,47.3,29.80,NNW,345,2.3,2.3,80,0.00,CLR,,0.00,WeatherDisplay:10.37,2013-09-04 07:35:00,
2013-09-04 01:40:00,53.5,47.1,29.80,NNW,345,2.3,2.3,79,0.00,CLR,,0.00,WeatherDisplay:10.37,2013-09-04 07:40:00,
2013-09-04 01:45:00,53.3,47.0,29.80,NNW,345,2.3,2.3,79,0.00,CLR,,0.00,WeatherDisplay:10.37,2013-09-04 07:45:00,
2013-09-04 01:50:00,53.3,47.0,29.80,NNW,345,3.5,3.5,79,0.00,CLR,,0.00,WeatherDisplay:10.37,2013-09-04 07:50:00,
2013-09-04 01:55:00,53.3,47.0,29.80,NNW,345,0.0,0.0,79,0.00,CLR,,0.00,WeatherDisplay:10.37,2013-09-04 07:55:00,
2013-09-04 02:00:00,53.2,46.5,29.79,NNW,345,0.0,0.0,78,0.00,CLR,,0.00,WeatherDisplay:10.37,2013-09-04 08:00:00,
2013-09-04 02:05:00,53.2,46.5,29.79,NNW,345,2.3,2.3,78,0.00,CLR,,0.00,WeatherDisplay:10.37,2013-09-04 08:05:00,
2013-09-04 02:10:00,53.5,46.8,29.79,NNW,345,3.5,3.5,78,0.00,CLR,,0.00,WeatherDisplay:10.37,2013-09-04 08:10:00,
2013-09-04 02:15:00,53.8,47.1,29.80,NNW,345,2.3,2.3,78,0.00,CLR,,0.00,WeatherDisplay:10.37,2013-09-04 08:15:00,
2013-09-04 02:20:00,53.8,47.1,29.80,NNW,345,0.0,0.0,78,0.00,CLR,,0.00,WeatherDisplay:10.37,2013-09-04 08:20:00,
2013-09-04 02:25:00,53.5,46.5,29.80,NNW,345,3.5,3.5,77,0.00,CLR,,0.00,WeatherDisplay:10.37,2013-09-04 08:25:00,
2013-09-04 02:30:00,53.3,46.6,29.81,NNW,345,1.2,0.0,78,0.00,CLR,,0.00,WeatherDisplay:10.37,2013-09-04 08:30:00,
2013-09-04 02:35:00,53.2,46.5,29.81,NNW,345,2.3,2.3,78,0.00,CLR,,0.00,WeatherDisplay:10.37,2013-09-04 08:35:00,
2013-09-04 02:40:00,52.8,46.5,29.81,NW,324,4.6,4.6,79,0.00,CLR,,0.00,WeatherDisplay:10.37,2013-09-04 08:40:00,
2013-09-04 02:45:00,52.5,46.2,29.81,East,81,0.0,0.0,79,0.00,CLR,,0.00,WeatherDisplay:10.37,2013-09-04 08:45:00,
2013-09-04 02:50:00,52.2,45.9,29.81,East,81,0.0,0.0,79,0.00,CLR,,0.00,WeatherDisplay:10.37,2013-09-04 08:50:00,
2013-09-04 02:55:00,52.3,46.3,29.81,ESE,105,1.2,1.2,80,0.00,CLR,,0.00,WeatherDisplay:10.37,2013-09-04 08:55:00,
2013-09-04 03:00:00,52.3,46.6,29.83,ESE,105,1.2,1.2,81,0.00,CLR,,0.00,WeatherDisplay:10.37,2013-09-04 09:00:00,
2013-09-04 03:05:00,52.3,46.3,29.83,ESE,105,1.2,1.2,80,0.00,CLR,,0.00,WeatherDisplay:10.37,2013-09-04 09:05:00,
2013-09-04 03:10:00,52.2,46.2,29.83,ESE,105,2.3,2.3,80,0.00,CLR,,0.00,WeatherDisplay:10.37,2013-09-04 09:10:00,
2013-09-04 03:15:00,52.0,46.0,29.84,ESE,105,0.0,0.0,80,0.00,CLR,,0.00,WeatherDisplay:10.37,2013-09-04 09:15:00,
2013-09-04 03:20:00,51.9,45.9,29.84,ESE,105,0.0,0.4,80,0.00,CLR,,0.00,WeatherDisplay:10.37,2013-09-04 09:20:00,
2013-09-04 03:25:00,52.0,46.3,29.84,SSE,159,2.3,2.3,81,0.00,CLR,,0.00,WeatherDisplay:10.37,2013-09-04 09:25:00,
2013-09-04 03:30:00,52.3,46.3,29.84,SSE,159,0.0,0.0,80,0.00,CLR,,0.00,WeatherDisplay:10.37,2013-09-04 09:30:00,
2013-09-04 03:35:00,52.2,46.2,29.84,SSE,159,0.0,0.0,80,0.00,CLR,,0.00,WeatherDisplay:10.37,2013-09-04 09:35:00,
2013-09-04 03:40:00,52.2,46.2,29.84,SSE,159,1.2,1.2,80,0.00,CLR,,0.00,WeatherDisplay:10.37,2013-09-04 09:40:00,
2013-09-04 03:45:00,52.0,46.0,29.84,SSE,159,0.0,0.0,80,0.00,CLR,,0.00,WeatherDisplay:10.37,2013-09-04 09:45:00,
2013-09-04 03:50:00,51.7,45.7,29.84,SSE,159,0.0,0.0,80,0.00,CLR,,0.00,WeatherDisplay:10.37,2013-09-04 09:50:00,
2013-09-04 03:55:00,51.6,46.0,29.84,SSE,159,1.2,1.2,81,0.00,CLR,,0.00,WeatherDisplay:10.37,2013-09-04 09:55:00,
2013-09-04 04:00:00,51.4,45.8,29.85,SSE,159,2.0,2.0,81,0.00,CLR,,0.00,WeatherDisplay:10.37,2013-09-04 10:00:00,
2013-09-04 04:05:00,51.3,46.0,29.85,SSE,159,0.0,0.0,82,0.00,CLR,,0.00,WeatherDisplay:10.37,2013-09-04 10:05:00,
2013-09-04 04:10:00,51.1,45.8,29.85,SSE,159,0.0,0.0,82,0.00,CLR,,0.00,WeatherDisplay:10.37,2013-09-04 10:10:00,
2013-09-04 04:15:00,51.1,46.1,29.84,SSE,159,0.0,0.0,83,0.00,CLR,,0.00,WeatherDisplay:10.37,2013-09-04 10:15:00,
2013-09-04 04:20:00,51.1,46.1,29.84,SSE,159,0.0,0.0,83,0.00,CLR,,0.00,WeatherDisplay:10.37,2013-09-04 10:20:00,
2013-09-04 04:25:00,51.1,46.1,29.84,SSE,159,0.0,0.0,83,0.00,CLR,,0.00,WeatherDisplay:10.37,2013-09-04 10:25:00,
2013-09-04 04:30:00,51.1,46.1,29.84,SSE,159,3.0,3.0,83,0.00,CLR,,0.00,WeatherDisplay:10.37,2013-09-04 10:30:00,
2013-09-04 04:35:00,50.8,45.8,29.84,SSE,159,1.2,1.2,83,0.00,CLR,,0.00,WeatherDisplay:10.37,2013-09-04 10:35:00,
2013-09-04 04:40:00,50.7,45.7,29.84,SSE,159,2.3,2.3,83,0.00,CLR,,0.00,WeatherDisplay:10.37,2013-09-04 10:40:00,
2013-09-04 04:45:00,50.5,45.5,29.84,SSE,159,2.3,2.3,83,0.00,CLR,,0.00,WeatherDisplay:10.37,2013-09-04 10:45:00,
2013-09-04 04:50:00,50.4,45.7,29.84,SSE,159,0.0,0.0,84,0.00,CLR,,0.00,WeatherDisplay:10.37,2013-09-04 10:50:00,
2013-09-04 04:55:00,50.1,45.5,29.84,SSE,159,0.0,0.0,84,0.00,CLR,,0.00,WeatherDisplay:10.37,2013-09-04 10:55:00,
2013-09-04 05:00:00,50.1,45.5,29.84,SSE,159,0.0,0.0,84,0.00,CLR,,0.00,WeatherDisplay:10.37,2013-09-04 11:00:00,
2013-09-04 05:05:00,50.1,45.5,29.84,SSE,159,0.0,0.0,84,0.00,CLR,,0.00,WeatherDisplay:10.37,2013-09-04 11:05:00,
2013-09-04 05:10:00,50.1,45.5,29.84,SSE,159,1.2,1.2,84,0.00,CLR,,0.00,WeatherDisplay:10.37,2013-09-04 11:10:00,
2013-09-04 05:15:00,50.2,45.6,29.88,SSE,159,0.0,0.0,84,0.00,CLR,,0.00,WeatherDisplay:10.37,2013-09-04 11:15:00,
2013-09-04 05:20:00,50.2,45.6,29.88,SSE,159,2.3,2.3,84,0.00,CLR,,0.00,WeatherDisplay:10.37,2013-09-04 11:20:00,
2013-09-04 05:25:00,50.1,45.5,29.88,SSE,159,1.2,1.2,84,0.00,CLR,,0.00,WeatherDisplay:10.37,2013-09-04 11:25:00,
2013-09-04 05:30:00,50.1,45.5,29.88,SSE,159,0.0,0.0,84,0.00,CLR,,0.00,WeatherDisplay:10.37,2013-09-04 11:30:00,
2013-09-04 05:35:00,49.9,45.3,29.88,SSE,159,0.0,0.0,84,0.00,CLR,,0.00,WeatherDisplay:10.37,2013-09-04 11:35:00,
2013-09-04 05:40:00,49.9,45.3,29.88,SSE,159,0.0,0.0,84,0.00,CLR,,0.00,WeatherDisplay:10.37,2013-09-04 11:40:00,
2013-09-04 05:45:00,50.1,45.8,29.89,SSE,159,1.2,0.0,85,0.00,CLR,,0.00,WeatherDisplay:10.37,2013-09-04 11:45:00,
2013-09-04 05:50:00,50.1,45.8,29.89,SSE,159,0.0,0.0,85,0.00,CLR,,0.00,WeatherDisplay:10.37,2013-09-04 11:50:00,
2013-09-04 05:55:00,50.1,45.8,29.89,SSE,159,0.0,0.0,85,0.00,CLR,,0.00,WeatherDisplay:10.37,2013-09-04 11:55:00,
2013-09-04 06:00:00,50.1,45.8,29.89,SSE,159,0.0,0.0,85,0.00,CLR,,0.00,WeatherDisplay:10.37,2013-09-04 12:00:00,
2013-09-04 06:05:00,50.1,45.8,29.89,SSE,159,0.0,0.0,85,0.00,CLR,,0.00,WeatherDisplay:10.37,2013-09-04 12:05:00,
2013-09-04 06:10:00,49.9,45.6,29.89,SSE,159,0.0,0.0,85,0.00,CLR,,0.00,WeatherDisplay:10.37,2013-09-04 12:10:00,
2013-09-04 06:15:00,49.6,45.3,29.90,SSE,159,0.0,0.0,85,0.00,CLR,,0.00,WeatherDisplay:10.37,2013-09-04 12:15:00,
2013-09-04 06:20:00,49.5,45.2,29.90,SSE,159,0.0,0.0,85,0.00,CLR,,0.00,WeatherDisplay:10.37,2013-09-04 12:20:00,
2013-09-04 06:25:00,49.6,45.6,29.90,SSE,159,2.3,2.3,86,0.00,CLR,,0.00,WeatherDisplay:10.37,2013-09-04 12:25:00,
2013-09-04 06:30:00,49.8,45.8,29.92,SSE,159,1.2,0.0,86,0.00,CLR,,0.00,WeatherDisplay:10.37,2013-09-04 12:30:00,
2013-09-04 06:35:00,49.8,45.5,29.92,SSE,159,0.0,0.0,85,0.00,CLR,,0.00,WeatherDisplay:10.37,2013-09-04 12:35:00,
2013-09-04 06:40:00,49.5,45.2,29.92,SSE,159,0.0,0.0,85,0.00,CLR,,0.00,WeatherDisplay:10.37,2013-09-04 12:40:00,
2013-09-04 06:45:00,49.4,45.1,29.92,SSE,159,0.0,0.0,85,0.00,CLR,,0.00,WeatherDisplay:10.37,2013-09-04 12:45:00,
2013-09-04 06:50:00,49.4,45.4,29.92,SSE,159,1.2,1.2,86,0.00,CLR,,0.00,WeatherDisplay:10.37,2013-09-04 12:50:00,
2013-09-04 06:55:00,49.5,45.5,29.92,SSE,159,1.2,0.0,86,0.00,CLR,,0.00,WeatherDisplay:10.37,2013-09-04 12:55:00,
2013-09-04 07:00:00,49.5,45.5,29.93,SSE,159,0.0,0.0,86,0.00,CLR,,0.00,WeatherDisplay:10.37,2013-09-04 13:00:00,
2013-09-04 07:05:00,49.6,45.9,29.93,SSE,159,0.0,0.0,87,0.00,CLR,,0.00,WeatherDisplay:10.37,2013-09-04 13:05:00,
2013-09-04 07:10:00,49.9,46.2,29.93,SSE,159,0.0,0.0,87,0.00,CLR,,0.00,WeatherDisplay:10.37,2013-09-04 13:10:00,
2013-09-04 07:15:00,50.1,46.4,29.96,SSE,159,0.0,0.0,87,0.00,CLR,,0.00,WeatherDisplay:10.37,2013-09-04 13:15:00,
2013-09-04 07:20:00,50.4,46.7,29.96,SSE,159,0.0,0.0,87,0.00,CLR,,0.00,WeatherDisplay:10.37,2013-09-04 13:20:00,
2013-09-04 07:25:00,50.7,47.0,29.96,SE,127,0.0,0.0,87,0.00,CLR,,0.00,WeatherDisplay:10.37,2013-09-04 13:25:00,
2013-09-04 07:30:00,50.8,46.8,29.96,SE,127,1.2,1.2,86,0.00,CLR,,0.00,WeatherDisplay:10.37,2013-09-04 13:30:00,
2013-09-04 07:35:00,50.8,46.8,29.96,SE,127,0.0,0.0,86,0.00,CLR,,0.00,WeatherDisplay:10.37,2013-09-04 13:35:00,
2013-09-04 07:40:00,51.0,47.3,29.96,SE,127,0.0,0.0,87,0.00,CLR,,0.00,WeatherDisplay:10.37,2013-09-04 13:40:00,
2013-09-04 07:45:00,51.6,48.2,29.95,SE,127,0.0,0.0,88,0.00,CLR,,0.00,WeatherDisplay:10.37,2013-09-04 13:45:00,
2013-09-04 07:50:00,53.2,49.7,29.95,SE,127,1.2,1.2,88,0.00,CLR,,0.00,WeatherDisplay:10.37,2013-09-04 13:50:00,
2013-09-04 07:55:00,54.2,50.1,29.95,SE,127,1.2,1.2,86,0.00,CLR,,0.00,WeatherDisplay:10.37,2013-09-04 13:55:00,
2013-09-04 08:00:00,55.6,50.8,29.92,SE,127,1.2,1.2,84,0.00,CLR,,0.00,WeatherDisplay:10.37,2013-09-04 14:00:00,
2013-09-04 08:05:00,56.6,50.2,29.92,SE,125,1.2,1.2,79,0.00,CLR,,0.00,WeatherDisplay:10.37,2013-09-04 14:05:00,
2013-09-04 08:10:00,57.8,50.3,29.92,SE,125,2.3,2.3,76,0.00,CLR,,0.00,WeatherDisplay:10.37,2013-09-04 14:10:00,
2013-09-04 08:15:00,58.6,50.0,29.91,SE,125,0.0,0.0,73,0.00,CLR,,0.00,WeatherDisplay:10.37,2013-09-04 14:15:00,
2013-09-04 08:20:00,58.9,48.7,29.91,SE,125,0.0,0.0,69,0.00,CLR,,0.00,WeatherDisplay:10.37,2013-09-04 14:20:00,
2013-09-04 08:25:00,59.6,49.8,29.91,SE,125,0.0,0.0,70,0.00,CLR,,0.00,WeatherDisplay:10.37,2013-09-04 14:25:00,
2013-09-04 08:30:00,60.9,48.6,29.89,SE,138,2.0,2.0,64,0.00,CLR,,0.00,WeatherDisplay:10.37,2013-09-04 14:30:00,
2013-09-04 08:35:00,61.6,48.0,29.89,SE,144,0.0,0.0,61,0.00,CLR,,0.00,WeatherDisplay:10.37,2013-09-04 14:35:00,
2013-09-04 08:40:00,62.4,48.3,29.89,SE,144,1.2,1.2,60,0.00,CLR,,0.00,WeatherDisplay:10.37,2013-09-04 14:40:00,
2013-09-04 08:45:00,62.9,48.3,29.88,SE,144,2.3,2.3,59,0.00,CLR,,0.00,WeatherDisplay:10.37,2013-09-04 14:45:00,
2013-09-04 08:50:00,63.4,49.3,29.88,SE,144,2.3,2.3,60,0.00,CLR,,0.00,WeatherDisplay:10.37,2013-09-04 14:50:00,
2013-09-04 08:55:00,63.7,49.1,29.88,SE,144,2.3,2.3,59,0.00,CLR,,0.00,WeatherDisplay:10.37,2013-09-04 14:55:00,
2013-09-04 09:00:00,63.4,49.7,29.88,SE,144,2.3,2.3,61,0.00,CLR,,0.00,WeatherDisplay:10.37,2013-09-04 15:00:00,
2013-09-04 09:05:00,62.7,49.1,29.88,SE,144,0.0,0.0,61,0.00,CLR,,0.00,WeatherDisplay:10.37,2013-09-04 15:05:00,
2013-09-04 09:10:00,62.6,48.5,29.88,SE,144,0.0,0.0,60,0.00,CLR,,0.00,WeatherDisplay:10.37,2013-09-04 15:10:00,
2013-09-04 09:15:00,62.9,49.2,29.92,SE,144,0.0,0.0,61,0.00,CLR,,0.00,WeatherDisplay:10.37,2013-09-04 15:15:00,
2013-09-04 09:20:00,63.2,48.2,29.92,SE,144,0.0,0.0,58,0.00,CLR,,0.00,WeatherDisplay:10.37,2013-09-04 15:20:00,
2013-09-04 09:25:00,63.9,49.3,29.92,SE,144,1.2,0.0,59,0.00,CLR,,0.00,WeatherDisplay:10.37,2013-09-04 15:25:00,
2013-09-04 09:30:00,64.3,49.7,29.92,SE,144,0.0,0.0,59,0.00,CLR,,0.00,WeatherDisplay:10.37,2013-09-04 15:30:00,
2013-09-04 09:35:00,65.2,48.6,29.92,SE,144,0.0,0.0,55,0.00,CLR,,0.00,WeatherDisplay:10.37,2013-09-04 15:35:00,
2013-09-04 09:40:00,66.4,49.2,29.92,SE,144,1.2,1.2,54,0.00,CLR,,0.00,WeatherDisplay:10.37,2013-09-04 15:40:00,
2013-09-04 09:45:00,68.3,48.4,29.89,SE,144,1.2,1.2,49,0.00,CLR,,0.00,WeatherDisplay:10.37,2013-09-04 15:45:00,
2013-09-04 09:50:00,69.9,48.2,29.89,SE,144,1.2,1.2,46,0.00,CLR,,0.00,WeatherDisplay:10.37,2013-09-04 15:50:00,
2013-09-04 09:55:00,71.5,48.4,29.89,SE,142,1.2,1.2,44,0.00,CLR,,0.00,WeatherDisplay:10.37,2013-09-04 15:55:00,
2013-09-04 10:00:00,72.8,49.0,29.84,SE,142,1.2,1.2,43,0.00,CLR,,0.00,WeatherDisplay:10.37,2013-09-04 16:00:00,
2013-09-04 10:05:00,74.0,46.1,29.84,SE,142,0.0,0.0,37,0.00,CLR,,0.00,WeatherDisplay:10.37,2013-09-04 16:05:00,
2013-09-04 10:10:00,75.3,47.2,29.84,SE,142,2.3,2.3,37,0.00,CLR,,0.00,WeatherDisplay:10.37,2013-09-04 16:10:00,
2013-09-04 10:15:00,76.1,45.7,29.87,SE,141,1.2,1.2,34,0.00,CLR,,0.00,WeatherDisplay:10.37,2013-09-04 16:15:00,
2013-09-04 10:20:00,76.5,45.2,29.87,SE,141,1.2,1.2,33,0.00,CLR,,0.00,WeatherDisplay:10.37,2013-09-04 16:20:00,
2013-09-04 10:25:00,77.2,44.2,29.87,SE,141,1.2,1.2,31,0.00,CLR,,0.00,WeatherDisplay:10.37,2013-09-04 16:25:00,
2013-09-04 10:30:00,78.1,43.2,29.86,SE,128,0.0,0.0,29,0.00,CLR,,0.00,WeatherDisplay:10.37,2013-09-04 16:30:00,
2013-09-04 10:35:00,79.0,46.6,29.86,SE,128,2.3,2.3,32,0.00,CLR,,0.00,WeatherDisplay:10.37,2013-09-04 16:35:00,
2013-09-04 10:40:00,80.1,44.0,29.86,East,93,3.5,3.5,28,0.00,CLR,,0.00,WeatherDisplay:10.37,2013-09-04 16:40:00,
2013-09-04 10:45:00,80.5,42.4,29.83,SSE,152,4.6,4.6,26,0.00,CLR,,0.00,WeatherDisplay:10.37,2013-09-04 16:45:00,
2013-09-04 10:50:00,80.7,43.6,29.83,SE,129,2.3,2.3,27,0.00,CLR,,0.00,WeatherDisplay:10.37,2013-09-04 16:50:00,
2013-09-04 10:55:00,80.7,43.6,29.83,SE,127,4.6,4.6,27,0.00,CLR,,0.00,WeatherDisplay:10.37,2013-09-04 16:55:00,
2013-09-04 11:00:00,80.9,43.8,29.83,SE,128,4.6,4.6,27,0.00,CLR,,0.00,WeatherDisplay:10.37,2013-09-04 17:00:00,
2013-09-04 11:05:00,80.9,42.8,29.83,SE,125,4.6,4.6,26,0.00,CLR,,0.00,WeatherDisplay:10.37,2013-09-04 17:05:00,
2013-09-04 11:10:00,81.2,43.0,29.83,SE,138,8.1,8.1,26,0.00,CLR,,0.00,WeatherDisplay:10.37,2013-09-04 17:10:00,
2013-09-04 11:15:00,81.1,41.9,29.86,SSE,149,4.6,4.6,25,0.00,CLR,,0.00,WeatherDisplay:10.37,2013-09-04 17:15:00,
2013-09-04 11:20:00,81.2,43.0,29.86,South,176,8.1,8.1,26,0.00,CLR,,0.00,WeatherDisplay:10.37,2013-09-04 17:20:00,
2013-09-04 11:25:00,81.2,42.0,29.86,ESE,122,6.9,6.9,25,0.00,CLR,,0.00,WeatherDisplay:10.37,2013-09-04 17:25:00,
2013-09-04 11:30:00,81.2,42.0,29.85,ENE,57,7.0,7.0,25,0.00,CLR,,0.00,WeatherDisplay:10.37,2013-09-04 17:30:00,
2013-09-04 11:35:00,81.6,43.4,29.85,East,98,5.8,5.8,26,0.00,CLR,,0.00,WeatherDisplay:10.37,2013-09-04 17:35:00,
2013-09-04 11:40:00,82.0,44.7,29.85,East,96,11.0,11.0,27,0.00,CLR,,0.00,WeatherDisplay:10.37,2013-09-04 17:40:00,
2013-09-04 11:45:00,82.6,42.1,29.83,East,91,6.9,6.9,24,0.00,CLR,,0.00,WeatherDisplay:10.37,2013-09-04 17:45:00,
2013-09-04 11:50:00,83.6,45.1,29.83,ESE,103,5.8,5.8,26,0.00,CLR,,0.00,WeatherDisplay:10.37,2013-09-04 17:50:00,
2013-09-04 11:55:00,84.0,45.4,29.83,East,80,8.1,8.1,26,0.00,CLR,,0.00,WeatherDisplay:10.37,2013-09-04 17:55:00,
2013-09-04 12:00:00,84.3,43.6,29.81,NNE,14,12.0,12.0,24,0.00,CLR,,0.00,WeatherDisplay:10.37,2013-09-04 18:00:00,
2013-09-04 12:05:00,85.1,44.2,29.81,ENE,66,12.0,12.0,24,0.00,CLR,,0.00,WeatherDisplay:10.37,2013-09-04 18:05:00,
2013-09-04 12:10:00,84.0,43.3,29.81,NNW,341,5.8,5.8,24,0.00,CLR,,0.00,WeatherDisplay:10.37,2013-09-04 18:10:00,
2013-09-04 12:15:00,83.2,43.7,29.84,NNE,33,6.9,6.9,25,0.00,CLR,,0.00,WeatherDisplay:10.37,2013-09-04 18:15:00,
2013-09-04 12:20:00,82.8,42.3,29.84,South,186,6.9,6.9,24,0.00,CLR,,0.00,WeatherDisplay:10.37,2013-09-04 18:20:00,
2013-09-04 12:25:00,83.2,43.7,29.84,SE,128,6.0,6.0,25,0.00,CLR,,0.00,WeatherDisplay:10.37,2013-09-04 18:25:00,
2013-09-04 12:30:00,84.0,43.3,29.83,ESE,114,5.8,5.8,24,0.00,CLR,,0.00,WeatherDisplay:10.37,2013-09-04 18:30:00,
2013-09-04 12:35:00,84.3,42.5,29.83,SE,128,5.0,5.0,23,0.00,CLR,,0.00,WeatherDisplay:10.37,2013-09-04 18:35:00,
2013-09-04 12:40:00,84.1,42.3,29.83,East,84,11.5,11.5,23,0.00,CLR,,0.00,WeatherDisplay:10.37,2013-09-04 18:40:00,
2013-09-04 12:45:00,83.6,45.1,29.81,NE,45,16.1,16.1,26,0.00,CLR,,0.00,WeatherDisplay:10.37,2013-09-04 18:45:00,
2013-09-04 12:50:00,84.5,43.7,29.81,NE,35,12.7,12.7,24,0.00,CLR,,0.00,WeatherDisplay:10.37,2013-09-04 18:50:00,
2013-09-04 12:55:00,84.1,43.4,29.81,NNW,345,11.5,11.5,24,0.00,CLR,,0.00,WeatherDisplay:10.37,2013-09-04 18:55:00,
2013-09-04 13:00:00,83.0,42.5,29.83,NE,39,18.4,18.4,24,0.00,CLR,,0.00,WeatherDisplay:10.37,2013-09-04 19:00:00,
2013-09-04 13:05:00,81.8,43.6,29.83,North,8,13.8,13.8,26,0.00,CLR,,0.00,WeatherDisplay:10.37,2013-09-04 19:05:00,
2013-09-04 13:10:00,81.4,43.2,29.83,North,8,11.5,11.5,26,0.00,CLR,,0.00,WeatherDisplay:10.37,2013-09-04 19:10:00,
2013-09-04 13:15:00,80.9,42.8,29.85,North,355,12.7,12.7,26,0.00,CLR,,0.00,WeatherDisplay:10.37,2013-09-04 19:15:00,
2013-09-04 13:20:00,81.1,43.9,29.85,North,357,12.7,12.7,27,0.00,CLR,,0.00,WeatherDisplay:10.37,2013-09-04 19:20:00,
2013-09-04 13:25:00,80.7,43.6,29.85,North,0,12.7,12.7,27,0.00,CLR,,0.00,WeatherDisplay:10.37,2013-09-04 19:25:00,
2013-09-04 13:30:00,79.6,43.6,29.87,NNW,348,13.8,13.8,28,0.00,CLR,,0.00,WeatherDisplay:10.37,2013-09-04 19:30:00,
2013-09-04 13:35:00,78.3,44.3,29.87,East,90,24.2,24.2,30,0.00,CLR,,0.00,WeatherDisplay:10.37,2013-09-04 19:35:00,
2013-09-04 13:40:00,76.5,44.4,29.87,NNE,28,20.7,20.7,32,0.00,CLR,,0.00,WeatherDisplay:10.37,2013-09-04 19:40:00,
2013-09-04 13:45:00,75.4,45.1,29.89,NNW,345,13.0,13.0,34,0.00,CLR,,0.00,WeatherDisplay:10.37,2013-09-04 19:45:00,
2013-09-04 13:50:00,74.7,47.4,29.89,NNE,21,13.8,13.8,38,0.00,CLR,,0.00,WeatherDisplay:10.37,2013-09-04 19:50:00,
2013-09-04 13:55:00,73.2,52.3,29.89,North,5,12.7,12.7,48,0.01,RA,,0.01,WeatherDisplay:10.37,2013-09-04 19:55:00,
2013-09-04 14:00:00,70.9,55.9,29.94,South,172,12.7,12.7,59,0.01,RA,,0.08,WeatherDisplay:10.37,2013-09-04 20:00:00,
2013-09-04 14:05:00,61.6,49.3,29.94,SW,221,20.7,20.7,64,0.29,RA,,0.29,WeatherDisplay:10.37,2013-09-04 20:05:00,
2013-09-04 14:10:00,59.3,49.1,29.94,WSW,254,20.7,20.7,69,0.40,RA,,0.40,WeatherDisplay:10.37,2013-09-04 20:10:00,
2013-09-04 14:15:00,58.7,51.5,30.08,West,279,17.3,17.3,77,0.44,RA,,0.44,WeatherDisplay:10.37,2013-09-04 20:15:00,
2013-09-04 14:20:00,58.0,52.5,30.08,NW,309,17.3,17.3,82,0.48,RA,,0.48,WeatherDisplay:10.37,2013-09-04 20:20:00,
2013-09-04 14:25:00,57.8,52.3,30.08,West,271,18.4,18.4,82,0.50,RA,,0.50,WeatherDisplay:10.37,2013-09-04 20:25:00,
2013-09-04 14:30:00,57.8,53.0,30.08,WNW,292,6.9,6.9,84,0.52,RA,,0.52,WeatherDisplay:10.37,2013-09-04 20:30:00,
2013-09-04 14:35:00,58.0,52.9,30.08,West,268,8.1,8.1,83,0.54,RA,,0.54,WeatherDisplay:10.37,2013-09-04 20:35:00,
2013-09-04 14:40:00,58.0,52.9,30.08,SW,217,8.1,8.1,83,0.54,RA,,0.54,WeatherDisplay:10.37,2013-09-04 20:40:00,
2013-09-04 14:45:00,58.0,52.9,30.09,WNW,300,5.8,5.8,83,0.55,RA,,0.55,WeatherDisplay:10.37,2013-09-04 20:45:00,
2013-09-04 14:50:00,58.0,53.2,30.09,WSW,244,10.4,10.4,84,0.55,RA,,0.55,WeatherDisplay:10.37,2013-09-04 20:50:00,
2013-09-04 14:55:00,58.0,52.9,30.09,SW,217,3.5,3.5,83,0.56,RA,,0.56,WeatherDisplay:10.37,2013-09-04 20:55:00,
2013-09-04 15:00:00,58.0,52.9,30.09,South,176,7.0,7.0,83,0.55,RA,,0.56,WeatherDisplay:10.37,2013-09-04 21:00:00,
2013-09-04 15:05:00,57.3,52.8,30.09,West,268,11.5,11.5,85,0.27,CLR,,0.56,WeatherDisplay:10.37,2013-09-04 21:05:00,
2013-09-04 15:10:00,57.3,52.5,30.09,WSW,255,11.5,11.5,84,0.17,RA,,0.57,WeatherDisplay:10.37,2013-09-04 21:10:00,
2013-09-04 15:15:00,57.2,51.8,30.11,West,265,13.8,13.8,82,0.13,RA,,0.57,WeatherDisplay:10.37,2013-09-04 21:15:00,
2013-09-04 15:20:00,57.3,52.2,30.11,SW,224,6.9,6.9,83,0.09,,,0.57,WeatherDisplay:10.37,2013-09-04 21:20:00,
2013-09-04 15:25:00,57.5,52.4,30.11,WSW,249,5.0,5.0,83,0.07,CLR,,0.57,WeatherDisplay:10.37,2013-09-04 21:25:00,
2013-09-04 15:30:00,57.5,52.4,30.10,WSW,258,4.6,4.6,83,0.05,CLR,,0.57,WeatherDisplay:10.37,2013-09-04 21:30:00,
2013-09-04 15:35:00,58.0,53.5,30.10,SW,231,8.1,8.1,85,0.03,CLR,,0.57,WeatherDisplay:10.37,2013-09-04 21:35:00,
2013-09-04 15:40:00,58.3,53.8,30.10,West,280,8.1,8.1,85,0.03,CLR,,0.57,WeatherDisplay:10.37,2013-09-04 21:40:00,
2013-09-04 15:45:00,58.7,54.5,30.07,WSW,238,5.8,5.8,86,0.02,CLR,,0.57,WeatherDisplay:10.37,2013-09-04 21:45:00,
2013-09-04 15:50:00,59.8,55.3,30.07,SW,221,6.9,6.9,85,0.02,CLR,,0.57,WeatherDisplay:10.37,2013-09-04 21:50:00,
2013-09-04 15:55:00,61.3,57.1,30.07,SW,217,6.9,6.9,86,0.01,CLR,,0.57,WeatherDisplay:10.37,2013-09-04 21:55:00,
2013-09-04 16:00:00,62.9,57.7,30.02,South,184,10.0,10.0,83,0.01,CLR,,0.57,WeatherDisplay:10.37,2013-09-04 22:00:00,
2013-09-04 16:05:00,63.7,57.1,30.02,SSW,196,6.9,6.9,79,0.01,CLR,,0.57,WeatherDisplay:10.37,2013-09-04 22:05:00,
2013-09-04 16:10:00,64.2,56.8,30.02,SSE,158,6.9,6.9,77,0.00,CLR,,0.57,WeatherDisplay:10.37,2013-09-04 22:10:00,
2013-09-04 16:15:00,64.0,56.3,30.01,South,187,4.6,4.6,76,0.00,CLR,,0.57,WeatherDisplay:10.37,2013-09-04 22:15:00,
2013-09-04 16:20:00,64.5,56.4,30.01,West,265,6.0,6.0,75,0.00,CLR,,0.57,WeatherDisplay:10.37,2013-09-04 22:20:00,
2013-09-04 16:25:00,65.5,55.5,30.01,South,189,6.9,6.9,70,0.00,CLR,,0.57,WeatherDisplay:10.37,2013-09-04 22:25:00,
2013-09-04 16:30:00,66.3,55.4,29.99,SSW,196,10.4,10.4,68,0.00,CLR,,0.57,WeatherDisplay:10.37,2013-09-04 22:30:00,
2013-09-04 16:35:00,67.4,55.2,29.99,SW,234,6.9,6.9,65,0.00,CLR,,0.57,WeatherDisplay:10.37,2013-09-04 22:35:00,
2013-09-04 16:40:00,67.9,54.4,29.99,SW,231,8.1,8.1,62,0.00,CLR,,0.57,WeatherDisplay:10.37,2013-09-04 22:40:00,
2013-09-04 16:45:00,68.3,55.2,29.97,South,186,7.0,7.0,63,0.00,CLR,,0.57,WeatherDisplay:10.37,2013-09-04 22:45:00,
2013-09-04 16:50:00,68.1,55.5,29.97,South,183,6.9,6.9,64,0.00,CLR,,0.57,WeatherDisplay:10.37,2013-09-04 22:50:00,
2013-09-04 16:55:00,67.9,54.4,29.97,South,186,7.0,7.0,62,0.00,CLR,,0.57,WeatherDisplay:10.37,2013-09-04 22:55:00,
2013-09-04 17:00:00,67.9,54.4,29.96,SSW,213,5.0,5.0,62,0.00,CLR,,0.57,WeatherDisplay:10.37,2013-09-04 23:00:00,
2013-09-04 17:05:00,67.9,54.4,29.96,WSW,238,4.6,4.6,62,0.00,CLR,,0.57,WeatherDisplay:10.37,2013-09-04 23:05:00,
2013-09-04 17:10:00,67.6,54.6,29.96,SSW,211,6.9,6.9,63,0.00,CLR,,0.57,WeatherDisplay:10.37,2013-09-04 23:10:00,
2013-09-04 17:15:00,66.8,54.7,29.98,WSW,249,7.0,7.0,65,0.00,CLR,,0.57,WeatherDisplay:10.37,2013-09-04 23:15:00,
2013-09-04 17:20:00,66.1,54.0,29.98,SSW,208,6.9,6.9,65,0.00,CLR,,0.57,WeatherDisplay:10.37,2013-09-04 23:20:00,
2013-09-04 17:25:00,66.0,55.1,29.98,South,183,8.1,8.1,68,0.00,CLR,,0.57,WeatherDisplay:10.37,2013-09-04 23:25:00,
2013-09-04 17:30:00,65.6,53.9,29.97,SSW,210,6.0,6.0,66,0.00,CLR,,0.57,WeatherDisplay:10.37,2013-09-04 23:30:00,
2013-09-04 17:35:00,65.8,54.1,29.97,SSW,206,4.6,4.6,66,0.00,CLR,,0.57,WeatherDisplay:10.37,2013-09-04 23:35:00,
2013-09-04 17:40:00,65.6,54.3,29.97,SW,231,3.5,3.5,67,0.00,CLR,,0.57,WeatherDisplay:10.37,2013-09-04 23:40:00,
2013-09-04 17:45:00,65.8,54.5,29.97,WSW,255,3.0,3.0,67,0.00,CLR,,0.57,WeatherDisplay:10.37,2013-09-04 23:45:00,
2013-09-04 17:50:00,65.6,54.3,29.97,West,262,1.2,1.2,67,0.00,CLR,,0.57,WeatherDisplay:10.37,2013-09-04 23:50:00,
2013-09-04 17:55:00,65.6,53.9,29.97,SW,235,5.8,5.8,66,0.00,CLR,,0.57,WeatherDisplay:10.37,2013-09-04 23:55:00,
2013-09-04 18:00:00,65.8,54.1,29.96,WSW,245,4.6,4.6,66,0.00,CLR,,0.57,WeatherDisplay:10.37,2013-09-05 00:00:00,
2013-09-04 18:05:00,66.0,53.5,29.96,WSW,244,4.6,4.6,64,0.00,CLR,,0.57,WeatherDisplay:10.37,2013-09-05 00:05:00,
2013-09-04 18:10:00,66.1,53.6,29.96,WSW,237,4.6,4.6,64,0.00,CLR,,0.57,WeatherDisplay:10.37,2013-09-05 00:10:00,
2013-09-04 18:15:00,66.1,54.4,29.96,WSW,240,3.5,3.5,66,0.00,CLR,,0.57,WeatherDisplay:10.37,2013-09-05 00:15:00,
2013-09-04 18:20:00,66.0,54.3,29.96,SSW,213,3.5,3.5,66,0.00,CLR,,0.57,WeatherDisplay:10.37,2013-09-05 00:20:00,
2013-09-04 18:25:00,65.8,54.5,29.96,SSW,213,1.2,1.2,67,0.00,CLR,,0.57,WeatherDisplay:10.37,2013-09-05 00:25:00,
2013-09-04 18:30:00,65.6,54.3,29.96,SSW,213,0.0,0.0,67,0.00,CLR,,0.57,WeatherDisplay:10.37,2013-09-05 00:30:00,
2013-09-04 18:35:00,65.5,54.2,29.96,SSW,213,0.0,0.0,67,0.00,CLR,,0.57,WeatherDisplay:10.37,2013-09-05 00:35:00,
2013-09-04 18:40:00,65.3,54.5,29.96,SSW,213,1.2,1.2,68,0.00,CLR,,0.57,WeatherDisplay:10.37,2013-09-05 00:40:00,
2013-09-04 18:45:00,65.2,55.2,29.97,SSW,213,0.0,0.0,70,0.00,CLR,,0.57,WeatherDisplay:10.37,2013-09-05 00:45:00,
2013-09-04 18:50:00,64.8,54.4,29.97,SSW,213,0.0,0.0,69,0.00,CLR,,0.57,WeatherDisplay:10.37,2013-09-05 00:50:00,
2013-09-04 18:55:00,64.5,54.9,29.97,SSW,213,1.2,1.2,71,0.00,CLR,,0.57,WeatherDisplay:10.37,2013-09-05 00:55:00,
2013-09-04 19:00:00,64.2,55.0,29.97,SSW,213,1.2,1.2,72,0.00,CLR,,0.57,WeatherDisplay:10.37,2013-09-05 01:00:00,
2013-09-04 19:05:00,63.9,55.1,29.98,SSW,213,0.0,0.0,73,0.00,CLR,,0.57,WeatherDisplay:10.37,2013-09-05 01:05:00,
2013-09-04 19:10:00,63.5,54.7,29.98,SSW,213,0.0,0.0,73,0.00,CLR,,0.57,WeatherDisplay:10.37,2013-09-05 01:10:00,
2013-09-04 19:15:00,63.4,55.0,29.95,SSW,213,1.2,1.2,74,0.00,CLR,,0.57,WeatherDisplay:10.37,2013-09-05 01:15:00,
2013-09-04 19:20:00,63.1,55.4,29.95,SSW,213,0.0,0.0,76,0.00,CLR,,0.57,WeatherDisplay:10.37,2013-09-05 01:20:00,
2013-09-04 19:25:00,62.7,55.0,29.95,SW,216,0.0,0.0,76,0.00,CLR,,0.57,WeatherDisplay:10.37,2013-09-05 01:25:00,
2013-09-04 19:30:00,62.3,55.4,29.96,SW,217,0.0,0.0,78,0.00,CLR,,0.57,WeatherDisplay:10.37,2013-09-05 01:30:00,
2013-09-04 19:35:00,62.0,55.4,29.96,SW,217,1.2,1.2,79,0.00,CLR,,0.57,WeatherDisplay:10.37,2013-09-05 01:35:00,
2013-09-04 19:40:00,61.6,55.4,29.96,SW,217,1.2,1.2,80,0.00,CLR,,0.57,WeatherDisplay:10.37,2013-09-05 01:40:00,
2013-09-04 19:45:00,61.3,55.1,29.99,SW,217,2.3,2.3,80,0.00,CLR,,0.57,WeatherDisplay:10.37,2013-09-05 01:45:00,
2013-09-04 19:50:00,61.0,54.8,29.99,SW,231,3.5,3.5,80,0.00,CLR,,0.57,WeatherDisplay:10.37,2013-09-05 01:50:00,
2013-09-04 19:55:00,60.9,54.7,29.99,SW,231,1.2,1.2,80,0.00,CLR,,0.57,WeatherDisplay:10.37,2013-09-05 01:55:00,
2013-09-04 20:00:00,60.7,54.8,29.98,SW,231,3.5,3.5,81,0.00,CLR,,0.57,WeatherDisplay:10.37,2013-09-05 02:00:00,
2013-09-04 20:05:00,60.5,54.6,29.98,SW,231,3.5,3.5,81,0.00,CLR,,0.57,WeatherDisplay:10.37,2013-09-05 02:05:00,
2013-09-04 20:10:00,60.5,55.0,29.98,WSW,254,3.5,3.5,82,0.00,CLR,,0.57,WeatherDisplay:10.37,2013-09-05 02:10:00,
2013-09-04 20:15:00,60.5,54.3,29.92,SSW,204,4.6,4.6,80,0.00,CLR,,0.57,WeatherDisplay:10.37,2013-09-05 02:15:00,
2013-09-04 20:20:00,60.4,53.9,29.92,SW,216,2.3,2.3,79,0.00,CLR,,0.57,WeatherDisplay:10.37,2013-09-05 02:20:00,
2013-09-04 20:25:00,60.2,53.7,29.92,SW,216,1.0,1.0,79,0.00,CLR,,0.57,WeatherDisplay:10.37,2013-09-05 02:25:00,
2013-09-04 20:30:00,60.1,53.2,29.94,SW,216,1.0,1.0,78,0.00,CLR,,0.57,WeatherDisplay:10.37,2013-09-05 02:30:00,
2013-09-04 20:35:00,60.1,52.9,29.94,SW,216,0.0,0.0,77,0.00,CLR,,0.57,WeatherDisplay:10.37,2013-09-05 02:35:00,
2013-09-04 20:40:00,60.1,52.9,29.94,SW,216,0.0,0.0,77,0.00,CLR,,0.57,WeatherDisplay:10.37,2013-09-05 02:40:00,
2013-09-04 20:45:00,59.9,52.7,29.94,SW,216,0.0,0.0,77,0.00,CLR,,0.57,WeatherDisplay:10.37,2013-09-05 02:45:00,
2013-09-04 20:50:00,59.8,53.3,29.94,SW,216,1.2,1.2,79,0.00,CLR,,0.57,WeatherDisplay:10.37,2013-09-05 02:50:00,
2013-09-04 20:55:00,59.6,53.1,29.94,WSW,256,4.6,4.6,79,0.00,CLR,,0.57,WeatherDisplay:10.37,2013-09-05 02:55:00,
2013-09-04 21:00:00,59.5,52.6,29.94,West,276,2.3,2.3,78,0.00,CLR,,0.57,WeatherDisplay:10.37,2013-09-05 03:00:00,
2013-09-04 21:05:00,59.5,52.6,29.94,West,271,2.3,2.3,78,0.00,CLR,,0.57,WeatherDisplay:10.37,2013-09-05 03:05:00,
2013-09-04 21:10:00,59.5,52.6,29.94,West,271,0.0,0.0,78,0.00,CLR,,0.57,WeatherDisplay:10.37,2013-09-05 03:10:00,
2013-09-04 21:15:00,59.5,53.0,29.87,West,271,0.0,0.0,79,0.00,CLR,,0.57,WeatherDisplay:10.37,2013-09-05 03:15:00,
2013-09-04 21:20:00,59.3,52.8,29.87,West,271,0.0,0.0,79,0.00,CLR,,0.57,WeatherDisplay:10.37,2013-09-05 03:20:00,
2013-09-04 21:25:00,59.2,52.7,29.87,West,271,0.0,0.0,79,0.00,CLR,,0.57,WeatherDisplay:10.37,2013-09-05 03:25:00,
2013-09-04 21:30:00,59.0,52.8,29.88,West,271,2.3,2.3,80,0.00,CLR,,0.57,WeatherDisplay:10.37,2013-09-05 03:30:00,
2013-09-04 21:35:00,58.9,52.7,29.88,West,271,0.0,0.0,80,0.00,CLR,,0.57,WeatherDisplay:10.37,2013-09-05 03:35:00,
2013-09-04 21:40:00,58.7,52.5,29.88,West,271,0.0,0.0,80,0.00,CLR,,0.57,WeatherDisplay:10.37,2013-09-05 03:40:00,
2013-09-04 21:45:00,58.6,52.4,29.88,West,271,2.3,2.3,80,0.00,CLR,,0.57,WeatherDisplay:10.37,2013-09-05 03:45:00,
2013-09-04 21:50:00,58.4,52.3,29.88,West,271,1.2,1.2,80,0.00,CLR,,0.57,WeatherDisplay:10.37,2013-09-05 03:50:00,
2013-09-04 21:55:00,58.3,52.2,29.88,West,272,0.0,0.0,80,0.00,CLR,,0.57,WeatherDisplay:10.37,2013-09-05 03:55:00,
2013-09-04 22:00:00,58.0,52.2,29.89,West,272,1.2,1.2,81,0.00,CLR,,0.57,WeatherDisplay:10.37,2013-09-05 04:00:00,
2013-09-04 22:01:00,58.0,52.2,29.89,West,272,2.3,2.3,81,0.00,CLR,,0.57,WeatherDisplay:10.37,2013-09-05 04:01:00,
2013-09-04 22:03:00,58.0,52.2,29.89,West,272,3.5,3.5,81,0.00,CLR,,0.57,WeatherDisplay:10.37,2013-09-05 04:03:00,
2013-09-04 22:08:00,57.6,52.1,29.89,West,272,1.2,1.2,82,0.00,CLR,,0.57,WeatherDisplay:10.37,2013-09-05 04:08:00,
2013-09-04 22:10:00,57.6,52.5,29.89,West,272,1.2,0.0,83,0.00,CLR,,0.57,WeatherDisplay:10.37,2013-09-05 04:10:00,
2013-09-04 22:15:00,57.5,52.4,29.83,West,272,0.0,0.0,83,0.00,CLR,,0.57,WeatherDisplay:10.37,2013-09-05 04:15:00,
2013-09-04 22:20:00,57.2,52.1,29.83,West,272,0.0,0.0,83,0.00,CLR,,0.57,WeatherDisplay:10.37,2013-09-05 04:20:00,
2013-09-04 22:25:00,57.0,51.9,29.83,West,272,0.0,0.0,83,0.00,CLR,,0.57,WeatherDisplay:10.37,2013-09-05 04:25:00,
2013-09-04 22:30:00,56.7,51.9,29.84,West,272,0.0,0.0,84,0.00,CLR,,0.57,WeatherDisplay:10.37,2013-09-05 04:30:00,
2013-09-04 22:35:00,56.6,51.8,29.84,West,272,0.0,0.0,84,0.00,CLR,,0.57,WeatherDisplay:10.37,2013-09-05 04:35:00,
2013-09-04 22:40:00,56.6,52.1,29.84,West,272,1.2,1.2,85,0.00,CLR,,0.57,WeatherDisplay:10.37,2013-09-05 04:40:00,
2013-09-04 22:45:00,56.6,52.1,29.84,West,269,2.3,2.3,85,0.00,CLR,,0.57,WeatherDisplay:10.37,2013-09-05 04:45:00,
2013-09-04 22:50:00,56.7,52.2,29.84,West,269,3.5,3.5,85,0.00,CLR,,0.57,WeatherDisplay:10.37,2013-09-05 04:50:00,
2013-09-04 22:55:00,56.6,52.1,29.84,WSW,240,2.3,2.3,85,0.00,CLR,,0.57,WeatherDisplay:10.37,2013-09-05 04:55:00,
2013-09-04 23:00:00,56.6,51.8,29.84,WSW,242,2.3,2.3,84,0.00,CLR,,0.57,WeatherDisplay:10.37,2013-09-05 05:00:00,
2013-09-04 23:05:00,56.5,51.7,29.84,WSW,255,2.3,2.3,84,0.00,CLR,,0.57,WeatherDisplay:10.37,2013-09-05 05:05:00,
2013-09-04 23:10:00,56.3,51.5,29.84,WSW,255,2.3,2.3,84,0.00,CLR,,0.57,WeatherDisplay:10.37,2013-09-05 05:10:00,
2013-09-04 23:15:00,56.2,51.4,29.82,WSW,255,1.2,0.0,84,0.00,CLR,,0.57,WeatherDisplay:10.37,2013-09-05 05:15:00,
2013-09-04 23:20:00,55.9,51.5,29.82,WSW,255,1.2,1.2,85,0.00,CLR,,0.57,WeatherDisplay:10.37,2013-09-05 05:20:00,
2013-09-04 23:25:00,55.7,51.3,29.82,WSW,255,2.3,2.3,85,0.00,CLR,,0.57,WeatherDisplay:10.37,2013-09-05 05:25:00,
2013-09-04 23:30:00,55.4,51.3,29.82,NW,307,3.5,3.5,86,0.00,CLR,,0.57,WeatherDisplay:10.37,2013-09-05 05:30:00,
2013-09-04 23:35:00,55.3,51.2,29.82,NW,307,3.5,3.5,86,0.00,CLR,,0.57,WeatherDisplay:10.37,2013-09-05 05:35:00,
2013-09-04 23:40:00,55.0,50.9,29.82,NW,307,2.3,2.3,86,0.00,CLR,,0.57,WeatherDisplay:10.37,2013-09-05 05:40:00,
2013-09-04 23:45:00,55.0,51.2,29.83,NW,307,0.0,0.0,87,0.00,CLR,,0.57,WeatherDisplay:10.37,2013-09-05 05:45:00,
2013-09-04 23:50:00,54.8,51.0,29.83,NW,306,1.2,1.2,87,0.00,CLR,,0.57,WeatherDisplay:10.37,2013-09-05 05:50:00,
2013-09-04 23:55:00,54.5,50.7,29.83,NW,306,1.0,1.0,87,0.00,CLR,,0.57,WeatherDisplay:10.37,2013-09-05 05:55:00,